Terminal Aerodrome Forecast
Issued by NWS Wakefield, VA

Home | Current Version | Previous Version | Text Only | Print | Product List | Glossary On
Versions: 1 2 3 4 5 6 7 8 9 10 11 12 13 14 15 16 17 18 19 20 21 22 23 24 25 26 27 28 29 30 31 32 33 34 35 36 37 38 39 40 41 42 43 44
697
FTUS41 KAKQ 011744 CCA
TAFRIC
TAF COR
KRIC 011744Z 0118/0218 VRB04KT P6SM SCT025
      TEMPO 0118/0120 BKN015
     FM012200 15004KT P6SM SCT200
     FM020400 VRB03KT 5SM BR SCT100
     FM020900 00000KT 1 1/2SM BR BKN008
     FM021200 VRB03KT P6SM OVC005
     FM021500 VRB03KT P6SM BKN070=

USA.gov is the U.S. government's official web portal to all federal, state and local government web resources and services.